Terminal Aerodrome Forecast
Issued by NWS

Home | Current Version | Previous Version | Graphics & Text | Print | Product List | Glossary On
Versions: 1 2 3 4 5 6 7 8 9 10 11 12 13 14 15 16 17
130
FTUS43 KIWX 301325 AAA
TAFSBN
TAF AMD
KSBN 301325Z 3013/0112 11015G17KT 3SM SHRA OVC005
     FM301800 17013G21KT 2SM +SHRA VCTS OVC008CB
     FM302100 18012KT 3SM +SHRA VCTS OVC020CB
     FM010200 18015G25KT 4SM SHRA VCTS OVC020CB
     FM010700 19015G26KT P6SM -SHRA OVC020
     FM011100 20012G23KT P6SM BKN035=

USA.gov is the U.S. government's official web portal to all federal, state and local government web resources and services.